Relevés horaires Matro (Suisse)


Relevés horaires à Matro - Dimanche 12 Juin 2022
Heure UTC1 Température [°C] Vent [km/h] Hum. [%] Pres.4 [hPa] Visi. [Km] Nébu. [octa] Préc.5 [mm] Cond.
2m. Res. Ros. Dir.2 Vit. Moy. Raf.3
23:00 12.0 11.1 5.1 SSO 9.3 -- 11.1 63 850(-0.5/3h) -- -- -- --
22:00 12.6 12.6 3.0 N 5.6 -- 11.1 52 850(-0.4/3h) -- -- -- --
21:00 12.5 12.1 3.9 E 7.4 -- 22.2 56 850(-0.2/3h) -- -- -- --
20:00 12.2 10.3 4.7 S 18.5 -- 22.2 60 850(0.0/3h) -- -- -- --
19:00 14.3 14.3 4.0 SSO 1.9 -- 20.4 50 850(-0.3/3h) -- -- -- --
18:00 15.4 15.2 2.1 NO 9.3 -- 25.9 41 850(-0.4/3h) -- -- -- --
17:00 15.6 15 2.2 NO 13.0 -- 22.2 40 850(-0.6/3h) -- -- -- --
16:00 16.6 16.6 3.6 NO 9.3 -- 25.9 42 850(-0.7/3h) -- -- -- --
15:00 17.3 17.2 1.3 ONO 11.1 -- 24.1 34 850(-0.8/3h) -- -- -- --
14:00 17.4 17.4 3.5 NO 9.3 -- 18.5 40 850(-1.0/3h) -- -- -- --
13:00 16.5 16.5 0.1 ONO 7.4 -- 18.5 33 850(-0.8/3h) -- -- -- --
12:00 15.7 15.7 -0.7 NO 7.4 -- 22.2 33 850(-0.5/3h) -- -- -- --
11:00 14.9 14.9 -3.6 O 7.4 -- 18.5 28 850(-0.1/3h) -- -- -- --
10:00 14.8 14.2 -3.0 NNO 11.1 -- 22.2 29 850(0.2/3h) -- -- -- --
09:00 14.1 13.6 -3.2 NNO 9.3 -- 20.4 30 850(0.4/3h) -- -- -- --
08:00 13.5 13.5 -1.8 NNO 5.6 -- 20.4 35 850(0.3/3h) -- -- -- --
07:00 12.8 11.8 -3.1 N 11.1 -- 18.5 33 850(0.3/3h) -- -- -- --
06:00 12.5 11.2 -3.6 NNO 13.0 -- 37.0 32 850(0.3/3h) -- -- -- --
05:00 11.8 10.2 -4.8 NO 14.8 -- 24.1 31 850(0.1/3h) -- -- -- --
04:00 11.3 9.2 -6.2 NO 18.5 -- 24.1 29 850(0.1/3h) -- -- -- --
03:00 11.5 9.6 -6.5 NO 16.7 -- 37.0 28 850(-0.4/3h) -- -- -- --
02:00 11.5 8.9 -5.9 NO 24.1 -- 37.0 29 850(-0.4/3h) -- -- -- --
01:00 11.4 8.5 -5.9 NO 27.8 -- 31.5 29 850(-0.4/3h) -- -- -- --
00:00 11.3 8.8 -5.6 NO 22.2 -- 37.0 30 850(-0.2/3h) -- -- -- --

1 Coordinated Universal Time. Actuellement il est 03:00 locale et 01:00 UTC.

2 Le vent souffle depuis la direction indiquée vers la direction oposée.

3 Les rafales max. sont disponible 40 min après l'heure du relevé.

4 Pour les stations d'altitude (plus de 600m) le géopotentiel du niveau le plus proche de la pression obligatoire est indiqué.

5 Les stations disposant d'un diffuseur peuvent indiquer "trace". Cela signifie que des précipitations ont touchés le sol mais que la quantité est inférieure à 0.1 mm.

Copyright

Les données affichées sur cette page sont la propriété exclusive de Météo Suisse.

Récapitulatif de la journée
Température [°C] Vent [km/h] Ensoleillement4 [h] Precipitations totale5 [mm] Pression [Hpa]
Min1 Max.2 Moy.3 Max. Min Max.
11.3 17.4 0 37.0 14 h 6 min 0 850.0 850.0

1 Température minimale relevée entre 18:00 UTC la veille et 18:00 UTC le jour donné.

2 Température maximale relevée entre 06:00 UTC le jour donné et 06:00 UTC le lendemain.

3 Vent moyen de la journée basé sur les relevés horaires.

4 Ensoleillement en heures relevé entre 06:00 UTC la veille et 06:00 UTC le jour donné.

5 Précipitations totales tombées entre 06:00 UTC la jour donné et 06:00 UTC le lendemain.

Graphiques horaires